createdAt,value
2022-11-12T00:00:32.241Z,29.98
2022-11-12T00:03:21.031Z,25.98
2022-11-12T00:06:09.599Z,21.58
2022-11-12T00:08:57.914Z,18.42
2022-11-12T00:11:46.801Z,25.80
2022-11-12T00:14:35.106Z,19.40
2022-11-12T00:17:23.502Z,25.23
2022-11-12T00:20:13.100Z,23.85
2022-11-12T00:23:01.710Z,20.35
2022-11-12T00:25:49.988Z,26.23
2022-11-12T00:28:39.446Z,22.88
2022-11-12T00:31:28.643Z,24.33
2022-11-12T00:34:17.317Z,20.48
2022-11-12T00:37:06.895Z,17.70
2022-11-12T00:39:55.696Z,19.90
2022-11-12T00:42:43.765Z,18.95
2022-11-12T00:45:32.559Z,21.77
2022-11-12T00:48:21.029Z,20.20
2022-11-12T00:51:09.707Z,22.15
2022-11-12T00:53:58.080Z,21.17
2022-11-12T00:56:48.903Z,22.65
2022-11-12T00:59:36.925Z,21.63
2022-11-12T01:02:25.802Z,21.52
2022-11-12T01:05:14.453Z,20.67
2022-11-12T01:08:03.309Z,24.92
2022-11-12T01:10:52.543Z,21.45
2022-11-12T01:13:44.532Z,25.40
2022-11-12T01:16:37.371Z,27.52
2022-11-12T01:19:26.118Z,27.33
2022-11-12T01:22:14.717Z,33.20
2022-11-12T01:25:03.544Z,27.92
2022-11-12T01:27:51.955Z,30.70
2022-11-12T01:30:40.665Z,28.63
2022-11-12T01:33:29.064Z,29.45
2022-11-12T01:36:18.976Z,26.58
2022-11-12T01:39:08.922Z,25.58
2022-11-12T01:41:57.518Z,31.75
2022-11-12T01:44:47.775Z,27.80
2022-11-12T01:47:36.949Z,29.08
2022-11-12T01:50:43.545Z,24.80
2022-11-12T01:53:34.617Z,23.08
2022-11-12T01:56:24.292Z,21.48
2022-11-12T01:59:18.545Z,24.27
2022-11-12T02:02:06.849Z,25.88
2022-11-12T02:04:56.202Z,27.30
2022-11-12T02:07:48.123Z,24.15
2022-11-12T02:10:37.165Z,27.90
2022-11-12T02:13:43.948Z,24.75
2022-11-12T02:16:39.712Z,28.25
2022-11-12T02:19:28.153Z,28.40
2022-11-12T02:22:16.779Z,29.75
2022-11-12T02:25:05.336Z,29.23
2022-11-12T02:27:56.013Z,38.25
2022-11-12T02:30:51.548Z,40.17
2022-11-12T02:33:40.030Z,35.05
2022-11-12T02:36:29.321Z,41.53
2022-11-12T02:39:18.047Z,21.08
2022-11-12T02:42:06.984Z,21.77
2022-11-12T02:44:55.796Z,27.80
2022-11-12T02:47:43.984Z,22.85
2022-11-12T02:50:32.628Z,29.40
2022-11-12T02:53:21.093Z,36.33
2022-11-12T02:56:09.813Z,36.10
2022-11-12T02:58:58.090Z,38.30
2022-11-12T03:01:46.298Z,32.13
2022-11-12T03:04:34.741Z,32.90
2022-11-12T03:07:23.725Z,34.90
2022-11-12T03:10:12.128Z,41.15
2022-11-12T03:13:02.733Z,38.13
2022-11-12T03:15:50.815Z,36.58
2022-11-12T03:18:39.522Z,28.35
2022-11-12T03:21:27.917Z,32.00
2022-11-12T03:24:16.425Z,27.23
2022-11-12T03:27:04.784Z,29.80
2022-11-12T03:29:54.324Z,32.65
2022-11-12T03:32:43.582Z,29.10
2022-11-12T03:35:33.331Z,31.00
2022-11-12T03:38:22.111Z,23.40
2022-11-12T03:41:10.382Z,33.03
2022-11-12T03:43:58.591Z,25.15
2022-11-12T03:46:50.643Z,30.10
2022-11-12T03:49:39.133Z,30.55
2022-11-12T03:52:27.802Z,26.73
2022-11-12T03:55:18.339Z,25.58
2022-11-12T03:58:08.715Z,30.17
2022-11-12T04:00:56.859Z,26.25
2022-11-12T04:03:45.465Z,30.63
2022-11-12T04:06:52.220Z,31.88
2022-11-12T04:09:40.973Z,28.92
2022-11-12T04:12:47.258Z,28.75
2022-11-12T04:15:35.997Z,26.70
2022-11-12T04:18:42.502Z,28.83
2022-11-12T04:21:52.483Z,30.85
2022-11-12T04:25:01.363Z,22.42
2022-11-12T04:27:50.028Z,26.10
2022-11-12T04:30:38.457Z,24.73
2022-11-12T04:33:27.270Z,30.90
2022-11-12T04:36:15.564Z,23.90
2022-11-12T04:39:04.698Z,21.27
2022-11-12T04:42:10.829Z,22.77
2022-11-12T04:45:04.906Z,21.48
2022-11-12T04:47:53.066Z,27.90
2022-11-12T04:50:42.864Z,25.38
2022-11-12T04:53:32.242Z,21.90
2022-11-12T04:56:21.135Z,22.83
2022-11-12T04:59:09.566Z,21.08
2022-11-12T05:01:58.336Z,22.20
2022-11-12T05:04:46.995Z,19.90
2022-11-12T05:07:36.052Z,23.13
2022-11-12T05:10:24.308Z,29.25
2022-11-12T05:13:12.987Z,27.13
2022-11-12T05:16:01.552Z,26.00
2022-11-12T05:18:50.320Z,21.98
2022-11-12T05:21:56.652Z,20.95
2022-11-12T05:24:46.925Z,24.58
2022-11-12T05:27:35.569Z,20.88
2022-11-12T05:30:24.536Z,20.83
2022-11-12T05:33:13.069Z,21.98
2022-11-12T05:36:02.128Z,23.05
2022-11-12T05:38:52.798Z,22.83
2022-11-12T05:42:10.720Z,20.30
2022-11-12T05:44:49.705Z,18.67
2022-11-12T05:47:38.390Z,19.02
2022-11-12T05:50:34.979Z,19.08
2022-11-12T05:53:28.728Z,20.10
2022-11-12T05:56:16.974Z,20.58
2022-11-12T05:59:08.397Z,20.58
2022-11-12T06:01:59.991Z,26.08
2022-11-12T06:04:48.873Z,28.35
2022-11-12T06:07:37.108Z,21.75
2022-11-12T06:10:25.886Z,24.42
2022-11-12T06:13:14.494Z,28.73
2022-11-12T06:16:03.144Z,24.80
2022-11-12T06:18:51.777Z,33.20
2022-11-12T06:21:40.559Z,30.35
2022-11-12T06:24:35.165Z,33.50
2022-11-12T06:27:25.293Z,29.17
2022-11-12T06:30:13.950Z,31.25
2022-11-12T06:33:03.444Z,26.08
2022-11-12T06:36:04.206Z,28.85
2022-11-12T06:38:53.228Z,26.77
2022-11-12T06:41:41.675Z,21.80
2022-11-12T06:44:30.460Z,21.08
2022-11-12T06:47:19.351Z,20.00
2022-11-12T06:50:07.833Z,21.75
2022-11-12T06:53:00.686Z,21.98
2022-11-12T06:55:51.969Z,18.48
2022-11-12T06:58:40.896Z,22.77
2022-11-12T07:01:29.173Z,18.00
2022-11-12T07:04:18.215Z,19.27
2022-11-12T07:07:10.416Z,19.35
2022-11-12T07:09:59.642Z,17.95
2022-11-12T07:12:53.022Z,19.70
2022-11-12T07:15:42.210Z,16.70
2022-11-12T07:18:31.814Z,16.98
2022-11-12T07:21:22.059Z,20.65
2022-11-12T07:24:10.765Z,17.70
2022-11-12T07:26:59.779Z,19.83
2022-11-12T07:29:48.849Z,18.85
2022-11-12T07:32:44.009Z,17.65
2022-11-12T07:35:33.988Z,17.30
2022-11-12T07:38:22.750Z,18.83
2022-11-12T07:41:19.955Z,14.35
2022-11-12T07:44:08.940Z,16.10
2022-11-12T07:46:57.268Z,17.90
2022-11-12T07:49:45.852Z,15.13
2022-11-12T07:52:34.828Z,16.08
2022-11-12T07:55:23.654Z,14.63
2022-11-12T07:58:12.045Z,16.52
2022-11-12T08:01:08.296Z,23.35
2022-11-12T08:03:56.847Z,18.10
2022-11-12T08:06:45.502Z,16.60
2022-11-12T08:09:33.668Z,19.40
2022-11-12T08:12:22.555Z,16.63
2022-11-12T08:15:11.189Z,16.98
2022-11-12T08:18:00.279Z,15.80
2022-11-12T08:20:48.177Z,16.40
2022-11-12T08:23:36.699Z,25.83
2022-11-12T08:26:25.351Z,22.38
2022-11-12T08:29:14.193Z,21.05
2022-11-12T08:32:02.423Z,17.50
2022-11-12T08:34:51.018Z,16.67
2022-11-12T08:37:39.258Z,17.33
2022-11-12T08:40:29.485Z,17.38
2022-11-12T08:43:17.659Z,18.27
2022-11-12T08:46:06.860Z,16.42
2022-11-12T08:48:55.391Z,21.08
2022-11-12T08:51:44.327Z,19.73
2022-11-12T08:54:32.647Z,16.45
2022-11-12T08:57:21.401Z,20.85
2022-11-12T09:00:11.295Z,15.18
2022-11-12T09:03:07.553Z,18.67
2022-11-12T09:05:56.036Z,18.48
2022-11-12T09:08:45.560Z,17.58
2022-11-12T09:11:33.847Z,22.50
2022-11-12T09:14:22.737Z,17.85
2022-11-12T09:17:11.279Z,19.42
2022-11-12T09:19:59.945Z,20.50
2022-11-12T09:22:50.854Z,21.80
2022-11-12T09:25:40.280Z,21.67
2022-11-12T09:28:28.698Z,21.20
2022-11-12T09:31:17.765Z,18.90
2022-11-12T09:34:07.246Z,19.73
2022-11-12T09:36:57.197Z,18.83
2022-11-12T09:39:45.311Z,17.58
2022-11-12T09:42:37.716Z,18.65
2022-11-12T09:45:34.199Z,16.67
2022-11-12T09:48:38.324Z,15.10
2022-11-12T09:51:33.907Z,14.88
2022-11-12T09:54:22.896Z,15.63
2022-11-12T09:57:14.217Z,15.98
2022-11-12T10:00:04.609Z,14.93
2022-11-12T10:03:04.288Z,15.25
2022-11-12T10:06:12.911Z,14.90
2022-11-12T10:09:30.354Z,15.45
2022-11-12T10:12:34.326Z,14.82
2022-11-12T10:15:58.804Z,14.15
2022-11-12T10:19:01.341Z,16.50
2022-11-12T10:22:05.753Z,15.75
2022-11-12T10:24:54.673Z,13.85
2022-11-12T10:27:44.356Z,15.02
2022-11-12T10:30:33.020Z,16.00
2022-11-12T10:33:21.285Z,15.88
2022-11-12T10:36:32.542Z,12.75
2022-11-12T10:39:39.137Z,13.13
2022-11-12T10:42:28.315Z,11.93
2022-11-12T10:45:24.698Z,12.40
2022-11-12T10:48:34.987Z,16.17
2022-11-12T10:51:41.819Z,11.65
2022-11-12T10:54:36.601Z,11.05
2022-11-12T10:57:28.284Z,11.30
2022-11-12T11:00:19.380Z,11.60
2022-11-12T11:05:59.893Z,11.27
2022-11-12T11:08:50.953Z,12.00
2022-11-12T11:11:49.533Z,11.32
2022-11-12T11:14:39.401Z,15.30
2022-11-12T11:17:28.001Z,10.93
2022-11-12T11:20:43.094Z,10.57
2022-11-12T11:23:54.633Z,9.23
2022-11-12T11:27:04.612Z,8.93
2022-11-12T11:30:14.559Z,9.02
2022-11-12T11:33:11.050Z,12.43
2022-11-12T11:36:12.016Z,10.07
2022-11-12T11:39:19.768Z,9.55
2022-11-12T11:42:08.622Z,11.95
2022-11-12T11:45:08.483Z,8.15
2022-11-12T11:48:06.140Z,7.47
2022-11-12T11:51:02.866Z,6.00
2022-11-12T11:54:15.964Z,5.10
2022-11-12T11:57:12.319Z,7.45
2022-11-12T12:00:26.633Z,5.75
2022-11-12T12:03:50.104Z,8.23
2022-11-12T12:07:02.148Z,5.60
2022-11-12T12:10:19.622Z,7.10
2022-11-12T12:13:08.519Z,6.70
2022-11-12T12:16:10.542Z,6.38
2022-11-12T12:19:20.744Z,5.85
2022-11-12T12:22:17.637Z,8.82
2022-11-12T12:25:14.906Z,5.63
2022-11-12T12:28:33.973Z,8.00
2022-11-12T12:31:27.578Z,8.80
2022-11-12T12:34:32.120Z,6.45
2022-11-12T12:37:48.079Z,7.57
2022-11-12T12:40:38.939Z,5.88
2022-11-12T12:43:39.686Z,7.15
2022-11-12T12:46:32.068Z,5.88
2022-11-12T12:49:38.331Z,10.77
2022-11-12T12:52:26.432Z,8.45
2022-11-12T12:55:43.219Z,7.57
2022-11-12T12:58:49.778Z,5.20
2022-11-12T13:01:38.973Z,6.72
2022-11-12T13:04:51.707Z,6.50
2022-11-12T13:07:49.724Z,11.32
2022-11-12T13:10:41.075Z,6.32
2022-11-12T13:13:33.010Z,5.95
2022-11-12T13:16:54.593Z,7.47
2022-11-12T13:20:12.065Z,4.45
2022-11-12T13:23:00.460Z,5.47
2022-11-12T13:25:49.515Z,5.68
2022-11-12T13:28:37.921Z,5.13
2022-11-12T13:31:29.733Z,6.78
2022-11-12T13:34:24.355Z,5.53
2022-11-12T13:37:22.505Z,3.92
2022-11-12T13:40:16.894Z,5.32
2022-11-12T13:43:11.645Z,7.70
2022-11-12T13:46:10.815Z,4.13
2022-11-12T13:49:14.394Z,4.22
2022-11-12T13:52:02.707Z,4.57
2022-11-12T13:55:06.926Z,5.38
2022-11-12T13:57:57.549Z,5.85
2022-11-12T14:00:57.264Z,5.53
2022-11-12T14:03:51.304Z,5.43
2022-11-12T14:06:45.745Z,4.03
2022-11-12T14:09:52.089Z,6.60
2022-11-12T14:12:57.066Z,3.40
2022-11-12T14:16:14.636Z,5.60
2022-11-12T14:19:03.337Z,4.82
2022-11-12T14:22:10.757Z,6.97
2022-11-12T14:25:04.181Z,6.65
2022-11-12T14:27:54.745Z,6.93
2022-11-12T14:30:47.024Z,4.70
2022-11-12T14:33:35.520Z,5.57
2022-11-12T14:36:24.877Z,4.65
2022-11-12T14:39:13.955Z,3.17
2022-11-12T14:42:03.029Z,4.25
2022-11-12T14:44:51.478Z,5.78
2022-11-12T14:47:40.498Z,4.13
2022-11-12T14:50:40.209Z,5.60
2022-11-12T14:53:42.555Z,4.53
2022-11-12T14:56:35.846Z,3.05
2022-11-12T14:59:24.574Z,5.68
2022-11-12T15:02:49.817Z,5.75
2022-11-12T15:05:26.383Z,4.05
2022-11-12T15:08:14.799Z,6.25
2022-11-12T15:11:45.488Z,5.53
2022-11-12T15:14:33.655Z,6.40
2022-11-12T15:17:37.441Z,4.65
2022-11-12T15:23:23.280Z,4.38
2022-11-12T15:26:24.126Z,3.10
2022-11-12T15:29:12.764Z,3.08
2022-11-12T15:32:02.791Z,5.45
2022-11-12T15:34:52.751Z,3.35
2022-11-12T15:37:44.783Z,3.63
2022-11-12T15:40:44.380Z,4.50
2022-11-12T15:43:38.033Z,2.88
2022-11-12T15:46:26.940Z,4.90
2022-11-12T15:49:15.213Z,3.25
2022-11-12T15:52:06.365Z,2.75
2022-11-12T15:54:54.458Z,4.22
2022-11-12T15:57:52.721Z,4.20
2022-11-12T16:00:41.228Z,3.30
2022-11-12T16:03:30.218Z,3.00
2022-11-12T16:06:18.670Z,4.28
2022-11-12T16:09:07.655Z,2.90
2022-11-12T16:11:58.562Z,3.63
2022-11-12T16:14:47.376Z,4.10
2022-11-12T16:17:35.589Z,4.15
2022-11-12T16:20:29.674Z,3.22
2022-11-12T16:23:18.500Z,5.03
2022-11-12T16:26:10.541Z,3.25
2022-11-12T16:28:58.945Z,4.38
2022-11-12T16:31:47.933Z,3.60
2022-11-12T16:34:36.406Z,7.07
2022-11-12T16:37:25.233Z,3.85
2022-11-12T16:40:19.745Z,4.60
2022-11-12T16:43:08.393Z,4.38
2022-11-12T16:45:56.556Z,4.40
2022-11-12T16:48:45.358Z,5.72
2022-11-12T16:51:34.062Z,5.60
2022-11-12T16:57:12.867Z,6.10
2022-11-12T17:00:01.619Z,5.80
2022-11-12T17:02:53.466Z,4.47
2022-11-12T17:05:42.263Z,6.05
2022-11-12T17:08:33.960Z,5.35
2022-11-12T17:11:23.658Z,5.55
2022-11-12T17:14:12.252Z,5.60
2022-11-12T17:17:01.423Z,3.75
2022-11-12T17:19:49.616Z,4.40
2022-11-12T17:22:39.274Z,5.68
2022-11-12T17:25:27.437Z,3.05
2022-11-12T17:28:16.118Z,4.78
2022-11-12T17:31:24.951Z,5.20
2022-11-12T17:34:13.757Z,4.90
2022-11-12T17:37:01.985Z,5.70
2022-11-12T17:39:50.698Z,5.55
2022-11-12T17:42:38.981Z,7.13
2022-11-12T17:45:29.897Z,5.97
2022-11-12T17:48:18.333Z,6.40
2022-11-12T17:51:15.751Z,5.00
2022-11-12T17:54:03.895Z,8.77
2022-11-12T17:56:52.694Z,5.22
2022-11-12T17:59:40.768Z,5.57
2022-11-12T18:02:29.558Z,5.68
2022-11-12T18:05:17.920Z,6.22
2022-11-12T18:08:06.814Z,7.03
2022-11-12T18:10:55.097Z,6.50
2022-11-12T18:13:44.233Z,4.65
2022-11-12T18:16:32.361Z,6.63
2022-11-12T18:19:21.161Z,6.85
2022-11-12T18:22:11.236Z,6.47
2022-11-12T18:25:00.371Z,5.10
2022-11-12T18:27:48.723Z,7.55
2022-11-12T18:30:40.617Z,4.78
2022-11-12T18:33:29.178Z,6.97
2022-11-12T18:36:27.544Z,5.90
2022-11-12T18:39:16.237Z,10.13
2022-11-12T18:42:06.075Z,12.75
2022-11-12T18:47:43.079Z,10.88
2022-11-12T18:50:31.593Z,7.10
2022-11-12T18:53:20.425Z,6.22
2022-11-12T18:56:14.629Z,8.95
2022-11-12T18:59:03.279Z,6.25
2022-11-12T19:01:51.996Z,8.13
2022-11-12T19:04:45.191Z,7.60
2022-11-12T19:07:33.883Z,6.43
2022-11-12T19:10:22.452Z,8.65
2022-11-12T19:13:10.895Z,7.20
2022-11-12T19:16:08.540Z,9.25
2022-11-12T19:18:57.087Z,7.93
2022-11-12T19:21:45.976Z,6.88
2022-11-12T19:24:34.182Z,5.45
2022-11-12T19:27:24.288Z,7.68
2022-11-12T19:30:13.148Z,5.78
2022-11-12T19:33:02.238Z,7.57
2022-11-12T19:35:50.740Z,6.20
2022-11-12T19:38:39.867Z,8.30
2022-11-12T19:41:28.209Z,6.40
2022-11-12T19:44:17.315Z,7.45
2022-11-12T19:47:05.789Z,14.05
2022-11-12T19:49:54.476Z,8.90
2022-11-12T19:52:42.748Z,5.03
2022-11-12T19:55:38.632Z,7.90
2022-11-12T19:58:28.612Z,7.93
2022-11-12T20:01:19.892Z,6.00
2022-11-12T20:04:13.000Z,6.55
2022-11-12T20:07:01.756Z,7.85
2022-11-12T20:09:50.343Z,7.45
2022-11-12T20:12:41.183Z,9.27
2022-11-12T20:15:29.422Z,8.32
2022-11-12T20:18:18.785Z,7.70
2022-11-12T20:21:07.610Z,9.52
2022-11-12T20:23:56.510Z,8.20
2022-11-12T20:26:44.711Z,9.80
2022-11-12T20:29:33.269Z,8.90
2022-11-12T20:32:23.584Z,9.35
2022-11-12T20:35:17.785Z,10.73
2022-11-12T20:38:07.686Z,8.27
2022-11-12T20:41:03.739Z,10.93
2022-11-12T20:43:56.778Z,11.43
2022-11-12T20:46:45.900Z,14.70
2022-11-12T20:49:34.421Z,12.18
2022-11-12T20:52:23.296Z,20.25
2022-11-12T20:55:11.595Z,24.85
2022-11-12T20:58:04.193Z,29.70
2022-11-12T21:00:52.647Z,24.85
2022-11-12T21:03:42.951Z,17.60
2022-11-12T21:06:31.357Z,16.65
2022-11-12T21:09:20.138Z,14.95
2022-11-12T21:12:08.983Z,18.67
2022-11-12T21:14:58.043Z,13.55
2022-11-12T21:17:46.307Z,11.77
2022-11-12T21:20:35.472Z,13.07
2022-11-12T21:23:23.936Z,10.57
2022-11-12T21:26:24.104Z,17.08
2022-11-12T21:29:14.452Z,11.07
2022-11-12T21:32:07.373Z,12.95
2022-11-12T21:34:58.231Z,11.57
2022-11-12T21:37:47.265Z,12.07
2022-11-12T21:40:36.364Z,11.82
2022-11-12T21:43:26.089Z,14.40
2022-11-12T21:46:19.485Z,12.00
2022-11-12T21:49:08.574Z,13.13
2022-11-12T21:51:59.457Z,13.13
2022-11-12T21:54:48.020Z,13.70
2022-11-12T21:57:36.294Z,17.52
2022-11-12T22:00:41.424Z,14.20
2022-11-12T22:03:33.672Z,11.60
2022-11-12T22:06:24.153Z,19.00
2022-11-12T22:09:12.224Z,18.40
2022-11-12T22:12:01.008Z,17.17
2022-11-12T22:14:49.267Z,22.08
2022-11-12T22:17:38.125Z,19.52
2022-11-12T22:20:26.904Z,21.08
2022-11-12T22:23:15.522Z,17.38
2022-11-12T22:26:08.150Z,20.38
2022-11-12T22:28:58.130Z,17.55
2022-11-12T22:31:46.300Z,17.73
2022-11-12T22:34:35.241Z,15.80
2022-11-12T22:37:23.581Z,17.88
2022-11-12T22:40:13.663Z,17.73
2022-11-12T22:43:02.246Z,17.95
2022-11-12T22:45:50.487Z,20.58
2022-11-12T22:48:39.283Z,14.90
2022-11-12T22:51:30.624Z,20.35
2022-11-12T22:54:19.164Z,18.25
2022-11-12T22:57:08.032Z,15.25
2022-11-12T22:59:56.261Z,15.90
2022-11-12T23:02:47.576Z,19.10
2022-11-12T23:05:37.966Z,19.98
2022-11-12T23:08:41.835Z,25.42
2022-11-12T23:11:30.389Z,24.95
2022-11-12T23:14:19.569Z,21.20
2022-11-12T23:17:07.845Z,16.17
2022-11-12T23:19:56.381Z,19.63
2022-11-12T23:22:44.735Z,17.58
2022-11-12T23:25:35.805Z,15.27
2022-11-12T23:28:24.239Z,17.70
2022-11-12T23:31:25.304Z,22.88
2022-11-12T23:34:14.138Z,14.27
2022-11-12T23:37:02.794Z,13.45
2022-11-12T23:39:51.123Z,16.30
2022-11-12T23:42:39.762Z,14.27
2022-11-12T23:45:33.578Z,16.38
2022-11-12T23:48:23.710Z,15.57
2022-11-12T23:51:16.906Z,18.60
2022-11-12T23:54:05.677Z,24.08
2022-11-12T23:56:53.979Z,19.15
2022-11-12T23:59:42.465Z,24.70
